createdAt,value
2023-01-29T00:02:13.728Z,219.07
2023-01-29T00:04:44.752Z,70.13
2023-01-29T00:07:16.874Z,262.35
2023-01-29T00:09:54.217Z,70.00
2023-01-29T00:12:29.525Z,98.15
2023-01-29T00:15:07.557Z,24.17
2023-01-29T00:17:37.582Z,76.25
2023-01-29T00:20:08.150Z,24.13
2023-01-29T00:22:41.735Z,30.60
2023-01-29T00:28:29.064Z,15.98
2023-01-29T00:31:31.255Z,11.18
2023-01-29T00:34:29.496Z,15.65
2023-01-29T00:37:13.499Z,4.40
2023-01-29T00:39:48.153Z,9.52
2023-01-29T00:42:37.135Z,4.60
2023-01-29T00:47:58.600Z,3.85
2023-01-29T00:50:41.925Z,4.00
2023-01-29T00:53:12.407Z,9.02
2023-01-29T00:56:00.578Z,8.60
2023-01-29T00:59:26.562Z,6.75
2023-01-29T01:02:20.130Z,5.50
2023-01-29T01:04:57.540Z,10.38
2023-01-29T01:07:34.787Z,7.13
2023-01-29T01:10:24.547Z,8.80
2023-01-29T01:13:20.676Z,12.10
2023-01-29T01:15:52.554Z,7.43
2023-01-29T01:18:24.395Z,4.90
2023-01-29T01:21:00.969Z,6.40
2023-01-29T01:23:31.614Z,5.93
2023-01-29T01:26:01.693Z,6.50
2023-01-29T01:28:32.514Z,7.90
2023-01-29T01:31:18.418Z,7.05
2023-01-29T01:33:54.223Z,8.70
2023-01-29T01:36:27.158Z,10.02
2023-01-29T01:39:01.213Z,9.80
2023-01-29T01:41:35.588Z,8.73
2023-01-29T01:44:09.431Z,9.70
2023-01-29T01:46:47.881Z,7.80
2023-01-29T01:49:22.871Z,6.70
2023-01-29T01:51:54.347Z,7.00
2023-01-29T01:54:31.125Z,9.13
2023-01-29T01:57:17.070Z,10.30
2023-01-29T01:59:55.958Z,11.73
2023-01-29T02:02:45.067Z,12.23
2023-01-29T02:05:34.674Z,5.97
2023-01-29T02:08:25.567Z,6.15
2023-01-29T02:10:56.526Z,6.03
2023-01-29T02:13:26.503Z,7.43
2023-01-29T02:15:56.622Z,8.85
2023-01-29T02:18:30.435Z,9.98
2023-01-29T02:21:26.405Z,7.25
2023-01-29T02:24:16.966Z,7.63
2023-01-29T02:27:13.097Z,6.63
2023-01-29T02:29:48.364Z,6.00
2023-01-29T02:32:37.518Z,5.38
2023-01-29T02:35:29.195Z,11.00
2023-01-29T02:38:14.293Z,14.43
2023-01-29T02:40:51.591Z,14.60
2023-01-29T02:44:12.434Z,11.20
2023-01-29T02:47:09.536Z,18.60
2023-01-29T02:50:00.770Z,17.70
2023-01-29T02:52:55.400Z,11.43
2023-01-29T02:55:39.894Z,9.65
2023-01-29T02:58:32.155Z,9.60
2023-01-29T03:01:15.768Z,8.68
2023-01-29T03:03:53.270Z,9.82
2023-01-29T03:06:39.758Z,7.68
2023-01-29T03:09:18.196Z,7.30
2023-01-29T03:11:54.357Z,25.13
2023-01-29T03:14:55.636Z,11.30
2023-01-29T03:17:29.364Z,14.65
2023-01-29T03:20:00.314Z,17.48
2023-01-29T03:22:32.452Z,16.27
2023-01-29T03:25:22.587Z,11.35
2023-01-29T03:28:24.006Z,12.63
2023-01-29T03:31:16.543Z,11.75
2023-01-29T03:34:06.868Z,12.45
2023-01-29T03:36:56.920Z,12.80
2023-01-29T03:39:31.515Z,9.27
2023-01-29T03:42:26.018Z,8.23
2023-01-29T03:45:04.779Z,7.15
2023-01-29T03:48:23.249Z,6.97
2023-01-29T03:51:31.841Z,6.03
2023-01-29T03:54:28.941Z,4.90
2023-01-29T03:57:18.691Z,4.80
2023-01-29T04:00:23.894Z,5.13
2023-01-29T04:03:30.198Z,4.50
2023-01-29T04:06:12.693Z,21.90
2023-01-29T04:09:23.176Z,13.95
2023-01-29T04:14:37.705Z,5.20
2023-01-29T04:17:20.624Z,5.55
2023-01-29T04:20:12.437Z,5.78
2023-01-29T04:22:48.861Z,6.63
2023-01-29T04:25:30.091Z,5.47
2023-01-29T04:28:16.544Z,5.15
2023-01-29T04:31:08.329Z,6.25
2023-01-29T04:33:43.581Z,5.28
2023-01-29T04:36:42.893Z,4.97
2023-01-29T04:39:23.857Z,5.10
2023-01-29T04:42:28.190Z,5.05
2023-01-29T04:45:33.723Z,5.40
2023-01-29T04:48:09.931Z,5.25
2023-01-29T04:50:50.185Z,5.03
2023-01-29T04:53:53.786Z,5.28
2023-01-29T04:56:32.909Z,4.63
2023-01-29T04:59:21.867Z,4.70
2023-01-29T05:01:52.091Z,4.38
2023-01-29T05:04:23.246Z,4.75
2023-01-29T05:06:54.453Z,4.43
2023-01-29T05:09:27.546Z,4.80
2023-01-29T05:11:58.161Z,4.72
2023-01-29T05:14:31.575Z,4.57
2023-01-29T05:17:06.609Z,4.82
2023-01-29T05:19:36.727Z,4.00
2023-01-29T05:22:10.797Z,4.07
2023-01-29T05:24:40.992Z,4.43
2023-01-29T05:27:36.330Z,4.28
2023-01-29T05:30:07.848Z,4.20
2023-01-29T05:32:38.062Z,4.03
2023-01-29T05:35:08.355Z,4.20
2023-01-29T05:37:38.575Z,4.50
2023-01-29T05:40:09.934Z,4.00
2023-01-29T05:42:40.016Z,4.32
2023-01-29T05:45:10.507Z,3.90
2023-01-29T05:47:40.459Z,4.40
2023-01-29T05:50:10.765Z,3.83
2023-01-29T05:52:41.209Z,3.40
2023-01-29T05:55:11.758Z,3.70
2023-01-29T05:57:42.547Z,3.30
2023-01-29T06:00:14.412Z,3.58
2023-01-29T06:02:44.795Z,3.25
2023-01-29T06:05:14.504Z,3.00
2023-01-29T06:07:46.425Z,3.33
2023-01-29T06:10:18.771Z,3.15
2023-01-29T06:12:49.460Z,3.35
2023-01-29T06:15:20.844Z,3.60
2023-01-29T06:17:50.798Z,3.05
2023-01-29T06:20:20.594Z,2.92
2023-01-29T06:22:50.572Z,3.50
2023-01-29T06:25:20.386Z,3.03
2023-01-29T06:27:52.856Z,2.88
2023-01-29T06:30:22.806Z,3.17
2023-01-29T06:32:52.583Z,3.00
2023-01-29T06:35:22.683Z,2.72
2023-01-29T06:37:52.739Z,3.35
2023-01-29T06:40:22.745Z,2.85
2023-01-29T06:42:52.476Z,2.70
2023-01-29T06:45:22.515Z,3.17
2023-01-29T06:47:52.292Z,2.78
2023-01-29T06:50:22.316Z,3.25
2023-01-29T06:52:52.100Z,2.60
2023-01-29T06:55:22.028Z,2.72
2023-01-29T06:57:51.853Z,2.40
2023-01-29T07:00:22.276Z,2.58
2023-01-29T07:02:52.023Z,2.47
2023-01-29T07:05:21.910Z,2.60
2023-01-29T07:07:52.803Z,2.67
2023-01-29T07:10:23.366Z,2.30
2023-01-29T07:12:53.228Z,2.25
2023-01-29T07:15:23.216Z,2.70
2023-01-29T07:18:01.068Z,2.47
2023-01-29T07:20:32.126Z,2.25
2023-01-29T07:23:02.201Z,2.70
2023-01-29T07:25:31.961Z,2.30
2023-01-29T07:28:05.353Z,2.03
2023-01-29T07:30:36.072Z,2.00
2023-01-29T07:33:07.555Z,2.15
2023-01-29T07:35:43.632Z,2.17
2023-01-29T07:38:13.629Z,2.50
2023-01-29T07:40:43.461Z,2.28
2023-01-29T07:43:13.459Z,2.22
2023-01-29T07:45:43.364Z,2.33
2023-01-29T07:48:14.590Z,2.58
2023-01-29T07:50:45.237Z,2.10
2023-01-29T07:53:17.649Z,2.20
2023-01-29T07:55:47.654Z,2.75
2023-01-29T07:58:17.419Z,2.25
2023-01-29T08:00:48.794Z,2.65
2023-01-29T08:03:21.352Z,2.30
2023-01-29T08:05:51.887Z,2.45
2023-01-29T08:08:21.806Z,2.13
2023-01-29T08:10:51.626Z,2.22
2023-01-29T08:13:21.765Z,2.50
2023-01-29T08:15:51.509Z,2.08
2023-01-29T08:18:21.411Z,2.15
2023-01-29T08:20:52.761Z,2.42
2023-01-29T08:23:23.010Z,2.85
2023-01-29T08:25:52.822Z,2.58
2023-01-29T08:28:22.846Z,2.20
2023-01-29T08:30:52.718Z,2.70
2023-01-29T08:33:29.859Z,2.80
2023-01-29T08:36:07.351Z,2.50
2023-01-29T08:38:37.987Z,2.47
2023-01-29T08:41:08.900Z,2.55
2023-01-29T08:43:39.667Z,2.40
2023-01-29T08:46:10.282Z,2.70
2023-01-29T08:48:40.567Z,2.60
2023-01-29T08:51:10.893Z,2.70
2023-01-29T08:53:41.008Z,2.47
2023-01-29T08:56:10.810Z,2.65
2023-01-29T08:58:40.758Z,2.80
2023-01-29T09:01:12.593Z,2.30
2023-01-29T09:03:44.847Z,2.88
2023-01-29T09:06:16.428Z,2.50
2023-01-29T09:08:46.868Z,2.40
2023-01-29T09:11:16.579Z,2.83
2023-01-29T09:13:46.578Z,2.78
2023-01-29T09:16:16.391Z,2.60
2023-01-29T09:18:46.540Z,3.00
2023-01-29T09:21:16.308Z,2.80
2023-01-29T09:23:46.240Z,2.60
2023-01-29T09:26:16.076Z,2.90
2023-01-29T09:28:46.221Z,3.00
2023-01-29T09:31:16.257Z,2.97
2023-01-29T09:33:46.570Z,2.75
2023-01-29T09:36:16.336Z,2.70
2023-01-29T09:38:46.459Z,3.40
2023-01-29T09:41:18.970Z,2.80
2023-01-29T09:44:01.001Z,3.42
2023-01-29T09:46:49.356Z,2.88
2023-01-29T09:49:33.330Z,3.33
2023-01-29T09:52:28.869Z,2.80
2023-01-29T09:55:09.249Z,2.70
2023-01-29T09:57:58.238Z,2.78
2023-01-29T10:00:54.451Z,2.78
2023-01-29T10:03:57.614Z,3.00
2023-01-29T10:06:39.219Z,2.90
2023-01-29T10:09:17.871Z,3.08
2023-01-29T10:12:25.824Z,2.88
2023-01-29T10:15:01.662Z,2.95
2023-01-29T10:18:09.235Z,3.50
2023-01-29T10:20:51.600Z,3.55
2023-01-29T10:23:37.241Z,3.10
2023-01-29T10:26:10.859Z,3.13
2023-01-29T10:28:47.603Z,3.60
2023-01-29T10:31:40.902Z,3.30
2023-01-29T10:34:33.145Z,3.80
2023-01-29T10:37:08.137Z,4.20
2023-01-29T10:39:38.698Z,4.13
2023-01-29T10:42:26.275Z,4.88
2023-01-29T10:45:07.339Z,4.10
2023-01-29T10:48:05.397Z,3.75
2023-01-29T10:50:45.973Z,3.88
2023-01-29T10:53:30.046Z,3.75
2023-01-29T10:56:23.233Z,3.88
2023-01-29T10:59:20.072Z,3.63
2023-01-29T11:01:50.091Z,3.30
2023-01-29T11:04:20.260Z,3.10
2023-01-29T11:06:51.341Z,3.25
2023-01-29T11:09:44.431Z,2.90
2023-01-29T11:12:21.798Z,2.60
2023-01-29T11:15:02.476Z,2.83
2023-01-29T11:17:32.596Z,2.78
2023-01-29T11:20:02.333Z,2.95
2023-01-29T11:22:32.994Z,2.83
2023-01-29T11:25:12.126Z,2.60
2023-01-29T11:27:51.716Z,2.60
2023-01-29T11:30:27.591Z,2.80
2023-01-29T11:33:26.891Z,2.65
2023-01-29T11:36:00.763Z,2.33
2023-01-29T11:38:32.448Z,2.20
2023-01-29T11:41:23.874Z,2.47
2023-01-29T11:43:54.328Z,2.40
2023-01-29T11:46:24.181Z,2.70
2023-01-29T11:48:59.423Z,2.20
2023-01-29T11:51:38.970Z,2.47
2023-01-29T11:54:20.803Z,2.42
2023-01-29T11:56:52.836Z,2.40
2023-01-29T11:59:45.474Z,2.20
2023-01-29T12:02:47.748Z,2.00
2023-01-29T12:06:08.929Z,2.28
2023-01-29T12:08:45.691Z,2.42
2023-01-29T12:11:34.447Z,17.63
2023-01-29T12:14:08.610Z,12.65
2023-01-29T12:16:56.856Z,10.15
2023-01-29T12:19:43.089Z,8.52
2023-01-29T12:22:49.644Z,5.40
2023-01-29T12:25:44.630Z,5.57
2023-01-29T12:28:43.800Z,1.85
2023-01-29T12:31:32.843Z,1.90
2023-01-29T12:34:33.115Z,1.80
2023-01-29T12:37:19.142Z,2.13
2023-01-29T12:39:50.432Z,2.20
2023-01-29T12:42:26.601Z,2.20
2023-01-29T12:45:06.444Z,2.10
2023-01-29T12:48:08.765Z,2.17
2023-01-29T12:50:41.101Z,2.30
2023-01-29T12:53:36.673Z,1.80
2023-01-29T12:56:18.947Z,2.10
2023-01-29T12:58:57.065Z,1.92
2023-01-29T13:02:31.366Z,2.10
2023-01-29T13:05:33.849Z,1.95
2023-01-29T13:08:33.379Z,1.75
2023-01-29T13:11:12.367Z,1.92
2023-01-29T13:14:03.118Z,2.05
2023-01-29T13:16:48.270Z,2.95
2023-01-29T13:19:47.801Z,5.90
2023-01-29T13:22:41.597Z,4.68
2023-01-29T13:25:19.699Z,5.75
2023-01-29T13:27:51.114Z,5.63
2023-01-29T13:30:32.994Z,4.40
2023-01-29T13:33:15.753Z,5.60
2023-01-29T13:35:48.416Z,6.00
2023-01-29T13:38:32.749Z,4.78
2023-01-29T13:41:10.096Z,4.38
2023-01-29T13:43:44.456Z,5.68
2023-01-29T13:46:22.513Z,4.45
2023-01-29T13:48:56.432Z,4.57
2023-01-29T13:51:34.421Z,3.92
2023-01-29T13:54:09.317Z,4.68
2023-01-29T13:56:42.493Z,5.97
2023-01-29T13:59:53.215Z,7.90
2023-01-29T14:02:27.724Z,5.72
2023-01-29T14:05:28.128Z,6.22
2023-01-29T14:08:18.745Z,8.23
2023-01-29T14:11:16.220Z,6.80
2023-01-29T14:13:51.201Z,6.45
2023-01-29T14:16:21.355Z,5.72
2023-01-29T14:19:02.628Z,8.10
2023-01-29T14:21:35.874Z,6.63
2023-01-29T14:24:15.670Z,5.95
2023-01-29T14:26:48.663Z,6.70
2023-01-29T14:29:34.839Z,5.60
2023-01-29T14:32:08.166Z,5.45
2023-01-29T14:34:45.718Z,6.63
2023-01-29T14:37:21.750Z,5.53
2023-01-29T14:39:58.781Z,5.38
2023-01-29T14:42:45.363Z,5.97
2023-01-29T14:45:26.742Z,4.97
2023-01-29T14:47:56.788Z,4.28
2023-01-29T14:50:36.062Z,4.22
2023-01-29T14:53:24.666Z,4.78
2023-01-29T14:55:54.746Z,5.20
2023-01-29T14:58:43.195Z,5.35
2023-01-29T15:01:54.007Z,6.53
2023-01-29T15:04:29.432Z,4.57
2023-01-29T15:07:31.248Z,5.60
2023-01-29T15:10:21.964Z,4.88
2023-01-29T15:13:21.722Z,6.55
2023-01-29T15:15:58.099Z,5.00
2023-01-29T15:18:43.352Z,4.97
2023-01-29T15:21:21.894Z,6.00
2023-01-29T15:24:07.221Z,4.15
2023-01-29T15:26:38.100Z,4.30
2023-01-29T15:29:08.635Z,5.72
2023-01-29T15:31:38.930Z,5.53
2023-01-29T15:34:09.684Z,5.53
2023-01-29T15:36:41.021Z,6.00
2023-01-29T15:39:14.181Z,5.95
2023-01-29T15:41:45.271Z,5.88
2023-01-29T15:44:23.954Z,6.03
2023-01-29T15:46:57.345Z,5.03
2023-01-29T15:49:36.880Z,4.68
2023-01-29T15:52:34.128Z,4.82
2023-01-29T15:55:07.289Z,3.92
2023-01-29T15:57:42.332Z,4.38
2023-01-29T16:00:25.106Z,5.10
2023-01-29T16:02:56.694Z,4.70
2023-01-29T16:05:34.030Z,4.18
2023-01-29T16:08:05.455Z,6.10
2023-01-29T16:10:36.616Z,4.22
2023-01-29T16:13:59.750Z,6.20
2023-01-29T16:16:31.217Z,5.05
2023-01-29T16:19:01.672Z,5.68
2023-01-29T16:21:41.370Z,5.05
2023-01-29T16:24:16.963Z,5.72
2023-01-29T16:27:17.065Z,6.78
2023-01-29T16:29:47.386Z,6.28
2023-01-29T16:32:17.906Z,6.57
2023-01-29T16:34:51.150Z,7.35
2023-01-29T16:37:31.126Z,8.15
2023-01-29T16:40:01.684Z,7.82
2023-01-29T16:42:33.847Z,7.13
2023-01-29T16:45:07.556Z,8.10
2023-01-29T16:47:45.214Z,7.53
2023-01-29T16:50:46.253Z,7.50
2023-01-29T16:53:26.472Z,5.60
2023-01-29T16:56:09.319Z,6.88
2023-01-29T16:58:39.571Z,9.02
2023-01-29T17:01:12.854Z,5.20
2023-01-29T17:03:44.177Z,5.45
2023-01-29T17:06:22.790Z,3.53
2023-01-29T17:08:53.710Z,4.93
2023-01-29T17:11:42.778Z,4.75
2023-01-29T17:14:21.005Z,7.97
2023-01-29T17:17:09.341Z,2.97
2023-01-29T17:19:41.228Z,4.40
2023-01-29T17:22:15.897Z,4.82
2023-01-29T17:24:46.672Z,3.72
2023-01-29T17:27:22.437Z,4.05
2023-01-29T17:29:53.491Z,3.33
2023-01-29T17:32:23.924Z,4.47
2023-01-29T17:34:58.724Z,6.00
2023-01-29T17:37:29.845Z,6.25
2023-01-29T17:40:04.285Z,5.15
2023-01-29T17:42:35.431Z,4.93
2023-01-29T17:45:06.102Z,4.45
2023-01-29T17:47:36.573Z,4.55
2023-01-29T17:50:24.009Z,3.90
2023-01-29T17:52:55.037Z,5.45
2023-01-29T17:55:25.584Z,5.32
2023-01-29T17:57:55.700Z,3.60
2023-01-29T18:00:26.815Z,5.20
2023-01-29T18:02:57.670Z,6.30
2023-01-29T18:05:47.656Z,5.65
2023-01-29T18:08:17.920Z,4.63
2023-01-29T18:10:48.641Z,4.32
2023-01-29T18:13:18.838Z,4.45
2023-01-29T18:15:48.946Z,4.55
2023-01-29T18:18:22.042Z,5.25
2023-01-29T18:20:52.561Z,4.88
2023-01-29T18:23:23.148Z,5.60
2023-01-29T18:25:53.942Z,5.93
2023-01-29T18:28:23.950Z,4.05
2023-01-29T18:30:54.307Z,4.93
2023-01-29T18:33:25.438Z,6.00
2023-01-29T18:35:56.278Z,4.70
2023-01-29T18:38:26.896Z,4.22
2023-01-29T18:41:04.949Z,5.63
2023-01-29T18:43:35.545Z,4.35
2023-01-29T18:46:05.461Z,5.35
2023-01-29T18:48:36.285Z,4.50
2023-01-29T18:51:06.948Z,5.75
2023-01-29T18:53:37.980Z,5.28
2023-01-29T18:56:09.892Z,6.47
2023-01-29T18:58:41.660Z,6.47
2023-01-29T19:01:13.034Z,6.05
2023-01-29T19:03:43.622Z,5.47
2023-01-29T19:06:13.917Z,4.85
2023-01-29T19:08:46.159Z,5.32
2023-01-29T19:11:16.182Z,5.53
2023-01-29T19:13:47.262Z,6.18
2023-01-29T19:16:17.832Z,5.07
2023-01-29T19:18:47.588Z,5.35
2023-01-29T19:21:18.761Z,5.15
2023-01-29T19:23:48.918Z,4.88
2023-01-29T19:26:18.928Z,4.78
2023-01-29T19:28:49.173Z,3.42
2023-01-29T19:31:19.088Z,3.78
2023-01-29T19:33:49.626Z,4.18
2023-01-29T19:36:19.664Z,5.03
2023-01-29T19:38:50.215Z,6.68
2023-01-29T19:41:20.334Z,5.22
2023-01-29T19:43:50.114Z,6.07
2023-01-29T19:46:20.310Z,5.20
2023-01-29T19:48:52.808Z,6.65
2023-01-29T19:51:24.420Z,7.50
2023-01-29T19:53:54.345Z,6.60
2023-01-29T19:56:25.708Z,5.20
2023-01-29T19:58:58.399Z,3.65
2023-01-29T20:01:32.358Z,5.60
2023-01-29T20:04:02.465Z,4.60
2023-01-29T20:06:32.242Z,5.28
2023-01-29T20:09:04.009Z,5.18
2023-01-29T20:11:34.482Z,7.05
2023-01-29T20:14:04.233Z,4.85
2023-01-29T20:16:34.252Z,4.82
2023-01-29T20:19:14.412Z,4.80
2023-01-29T20:24:17.679Z,4.45
2023-01-29T20:26:47.511Z,5.18
2023-01-29T20:29:17.581Z,6.45
2023-01-29T20:31:47.652Z,4.72
2023-01-29T20:34:18.450Z,3.45
2023-01-29T20:36:48.353Z,4.10
2023-01-29T20:39:18.545Z,3.10
2023-01-29T20:41:50.960Z,3.25
2023-01-29T20:44:21.459Z,6.40
2023-01-29T20:46:51.564Z,7.63
2023-01-29T20:49:22.883Z,5.93
2023-01-29T20:51:53.170Z,6.07
2023-01-29T20:54:22.902Z,5.28
2023-01-29T20:56:53.195Z,3.50
2023-01-29T20:59:23.465Z,3.65
2023-01-29T21:01:57.825Z,3.10
2023-01-29T21:04:29.390Z,2.38
2023-01-29T21:06:59.704Z,1.85
2023-01-29T21:09:29.572Z,1.95
2023-01-29T21:12:00.009Z,1.73
2023-01-29T21:14:30.274Z,2.35
2023-01-29T21:17:00.189Z,2.20
2023-01-29T21:19:32.008Z,2.13
2023-01-29T21:22:02.021Z,1.60
2023-01-29T21:24:31.859Z,1.25
2023-01-29T21:27:02.120Z,3.28
2023-01-29T21:29:32.159Z,3.70
2023-01-29T21:32:02.479Z,4.50
2023-01-29T21:34:32.295Z,2.70
2023-01-29T21:37:05.192Z,2.88
2023-01-29T21:39:35.343Z,2.58
2023-01-29T21:42:24.081Z,5.65
2023-01-29T21:44:55.040Z,4.32
2023-01-29T21:47:25.254Z,13.68
2023-01-29T21:49:55.802Z,12.93
2023-01-29T21:52:25.946Z,9.48
2023-01-29T21:54:55.720Z,5.72
2023-01-29T21:57:28.690Z,7.50
2023-01-29T22:00:00.491Z,4.63
2023-01-29T22:02:33.175Z,4.25
2023-01-29T22:05:18.017Z,3.63
2023-01-29T22:07:50.828Z,2.45
2023-01-29T22:10:21.687Z,1.65
2023-01-29T22:12:55.188Z,1.30
2023-01-29T22:15:28.687Z,1.90
2023-01-29T22:18:05.215Z,2.05
2023-01-29T22:20:35.608Z,15.10
2023-01-29T22:23:05.916Z,11.07
2023-01-29T22:25:36.410Z,9.88
2023-01-29T22:28:06.271Z,11.50
2023-01-29T22:30:38.143Z,7.97
2023-01-29T22:33:08.620Z,3.78
2023-01-29T22:35:39.402Z,1.88
2023-01-29T22:38:09.844Z,2.58
2023-01-29T22:40:39.607Z,2.50
2023-01-29T22:43:15.828Z,2.50
2023-01-29T22:45:47.133Z,2.28
2023-01-29T22:48:17.333Z,2.15
2023-01-29T22:50:54.810Z,1.95
2023-01-29T22:53:24.949Z,1.90
2023-01-29T22:55:56.875Z,2.35
2023-01-29T22:58:32.707Z,7.32
2023-01-29T23:01:02.738Z,8.80
2023-01-29T23:03:32.623Z,28.17
2023-01-29T23:06:03.979Z,19.23
2023-01-29T23:08:35.545Z,25.67
2023-01-29T23:11:16.041Z,27.67
2023-01-29T23:13:49.315Z,26.63
2023-01-29T23:16:21.008Z,25.15
2023-01-29T23:18:56.398Z,25.63
2023-01-29T23:21:27.178Z,25.75
2023-01-29T23:23:59.494Z,21.50
2023-01-29T23:26:48.949Z,15.18
2023-01-29T23:29:19.742Z,38.50
2023-01-29T23:31:49.736Z,31.98
2023-01-29T23:34:20.212Z,33.85
2023-01-29T23:36:50.062Z,31.00
2023-01-29T23:39:21.574Z,36.22
2023-01-29T23:41:51.634Z,30.10
2023-01-29T23:44:24.855Z,34.58
2023-01-29T23:46:55.462Z,33.00
2023-01-29T23:49:25.690Z,33.00
2023-01-29T23:51:57.505Z,31.05
2023-01-29T23:54:28.344Z,28.67
2023-01-29T23:56:58.307Z,26.77
2023-01-29T23:59:31.480Z,6.05
